Bayerns grosse Airshow

motor veste rechts h240

joomla templates top joomla templates template joomla

Notam

C3641/14 - CUSTOMS AVBL PPR, TEL 0049 9561 92098. 13 NOV 14:46 2014 UNTIL PERM. CREATED: 13 NOV 14:47 2014

Neue Wetteranzeige

Aktuelles Platzwetter Stand 28.05.2017 02:50Z

AvgMinMax
Windrichtung9080100Deg
Windgeschwindigkeit547kt
Sichtweite>10000m
Temperatur16°C
Taupunkt10°C
Feuchte67%
QNH1021.6hPa
QFE967.9hPa
WolkenSKC

Aerodrome Terminal Information Service (ATIS) Coburg

METAR
EDQC 280250Z AUTO 09006KT CAVOK 16/10 Q1021=

METAR und TAF der Umgebung

[Quelle: ADDS]
METAR
EDDF 280220Z 08005KT CAVOK 16/13 Q1018 NOSIG =
EDDN 280220Z 00000KT CAVOK 14/10 Q1021 =
EDDE 280220Z 19010KT CAVOK 17/10 Q1020 =
TAF
EDDF 272300Z 2800/2906 07005KT CAVOK BECMG 2810/2813 19006KT PROB30 TEMPO 2818/2824 21015G30KT 4000 TSRA SCT040CB =
EDDN 272300Z 2800/2824 10005KT CAVOK BECMG 2807/2809 16007KT BECMG 2816/2818 10005KT =
EDDE 272300Z 2800/2824 18004KT CAVOK BECMG 2811/2813 25006KT =
SR / SS: 03:15 / 19:14 UTC (EDQC 2017-05-28)

Wetterverlauf

Verkehrslandeplatz Coburg Brandensteinsebene
Tower
Zur Brandensteinsebene
96450 Coburg

AeroClub Logo 200px

Aero Club Coburg e. V.
Postfach 11 09
96401 Coburg